Time;durP1;ratioP1;P1;durP2;ratioP2;P2;SDS_P1;SDS_P2;PMS_P1;PMS_P2;Temp;Humidity;BMP_temperature;BMP_pressure;BME280_temperature;BME280_humidity;BME280_pressure;Samples;Min_cycle;Max_cycle;Signal;HPM_P1;HPM_P2
2023/09/19 00:00:47;;;;;;;5.90;2.90;;;;;;;18.17;77.99;99873.43;110757;1209;139348;-68
2023/09/19 00:03:13;;;;;;;5.60;3.20;;;;;;;18.13;78.43;99865.61;111007;1206;96474;-68
2023/09/19 00:05:39;;;;;;;7.00;2.60;;;;;;;18.11;78.32;99868.15;111127;1209;138655;-68
2023/09/19 00:08:05;;;;;;;4.50;3.00;;;;;;;18.07;78.46;99868.89;111142;1209;97697;-68
2023/09/19 00:10:34;;;;;;;6.00;2.80;;;;;;;18.04;78.59;99866.21;110960;1206;97610;-68
2023/09/19 00:13:07;;;;;;;7.60;2.80;;;;;;;17.99;79.26;99871.20;110740;1221;138217;-68
2023/09/19 00:15:48;;;;;;;8.60;3.20;;;;;;;17.97;79.51;99882.92;110939;1209;99308;-68
2023/09/19 00:18:15;;;;;;;5.40;2.80;;;;;;;17.94;79.73;99893.69;110821;1210;138539;-68
2023/09/19 00:20:42;;;;;;;5.60;3.40;;;;;;;17.91;80.48;99902.27;110966;1209;97671;-68
2023/09/19 00:23:08;;;;;;;6.70;3.00;;;;;;;17.88;80.78;99902.02;110738;1206;138780;-68
2023/09/19 00:25:37;;;;;;;6.30;3.00;;;;;;;17.85;81.05;99908.71;110928;1209;98049;-69
2023/09/19 00:28:04;;;;;;;10.50;3.60;;;;;;;17.85;81.39;99920.87;110986;1209;97661;-69
2023/09/19 00:30:30;;;;;;;6.30;3.30;;;;;;;17.80;81.92;99924.89;111026;1206;139036;-69
2023/09/19 00:32:55;;;;;;;9.30;3.70;;;;;;;17.77;82.22;99925.15;110995;1209;97757;-69
2023/09/19 00:35:25;;;;;;;5.90;3.40;;;;;;;17.76;82.45;99920.34;110880;1209;140473;-69
2023/09/19 00:37:51;;;;;;;11.50;4.10;;;;;;;17.74;82.43;99913.96;110982;1212;99799;-69
2023/09/19 00:40:17;;;;;;;8.80;2.90;;;;;;;17.74;82.67;99913.48;110948;1212;98036;-68
2023/09/19 00:42:43;;;;;;;6.60;2.80;;;;;;;17.70;83.13;99910.19;110929;1206;138746;-69
2023/09/19 00:45:11;;;;;;;6.10;2.70;;;;;;;17.68;83.27;99910.35;111107;1209;98581;-69
2023/09/19 00:47:44;;;;;;;7.10;3.00;;;;;;;17.67;83.46;99905.23;111006;1206;138816;-68
2023/09/19 00:50:10;;;;;;;6.20;2.80;;;;;;;17.67;83.35;99902.86;110887;1211;97700;-69
2023/09/19 00:52:38;;;;;;;4.70;2.80;;;;;;;17.67;83.61;99909.56;111184;1206;97743;-69
2023/09/19 00:55:08;;;;;;;7.10;2.50;;;;;;;17.67;83.93;99900.70;110753;1212;138367;-69
2023/09/19 00:57:35;;;;;;;4.70;2.90;;;;;;;17.66;84.01;99894.09;111013;1212;97716;-69
2023/09/19 01:00:05;;;;;;;9.60;3.20;;;;;;;17.66;84.08;99893.20;110983;1206;138302;-69
2023/09/19 01:02:32;;;;;;;5.10;2.80;;;;;;;17.66;84.31;99895.75;111090;1212;97656;-69
2023/09/19 01:04:58;;;;;;;6.70;3.10;;;;;;;17.65;84.07;99897.02;110911;1209;138465;-68
2023/09/19 01:07:23;;;;;;;5.30;3.00;;;;;;;17.63;84.43;99886.90;110983;1210;97632;-69
2023/09/19 01:09:50;;;;;;;8.00;3.40;;;;;;;17.64;84.41;99883.58;111002;1210;97587;-69
2023/09/19 01:12:23;;;;;;;5.50;3.20;;;;;;;17.63;84.53;99881.14;111298;1206;139889;-68
2023/09/19 01:14:59;;;;;;;6.30;3.60;;;;;;;17.62;84.86;99886.84;110810;1210;97699;-69
2023/09/19 01:17:30;;;;;;;7.50;3.50;;;;;;;17.62;85.31;99892.63;110821;1212;139416;-68
2023/09/19 01:20:12;;;;;;;9.70;4.80;;;;;;;17.61;85.32;99893.23;110885;1209;97686;-69
2023/09/19 01:23:01;;;;;;;7.80;4.20;;;;;;;17.61;85.34;99895.23;110782;1209;99374;-69
2023/09/19 01:26:02;;;;;;;7.30;5.70;;;;;;;17.62;85.44;99891.90;110819;1222;97640;-68
2023/09/19 01:28:54;;;;;;;8.50;4.80;;;;;;;17.61;85.66;99889.11;110910;1209;97681;-68
2023/09/19 01:31:21;;;;;;;8.60;4.20;;;;;;;17.59;85.91;99891.02;110932;1206;102966;-68
2023/09/19 01:34:00;;;;;;;6.50;3.70;;;;;;;17.60;85.98;99893.30;110875;1212;99090;-69
2023/09/19 01:36:35;;;;;;;7.00;3.20;;;;;;;17.60;86.33;99893.33;111012;1206;138737;-68
2023/09/19 01:39:10;;;;;;;10.50;2.60;;;;;;;17.59;86.68;99886.92;110911;1228;97642;-68
2023/09/19 01:41:54;;;;;;;4.80;2.70;;;;;;;17.58;86.73;99887.30;110767;1206;139245;-68
2023/09/19 01:44:40;;;;;;;8.40;2.90;;;;;;;17.57;87.02;99880.74;111097;1210;102697;-69
2023/09/19 01:47:17;;;;;;;3.80;2.40;;;;;;;17.55;87.07;99882.52;110947;1206;139033;-67
2023/09/19 01:49:50;;;;;;;6.30;2.70;;;;;;;17.55;87.58;99882.55;110923;1209;99661;-68
2023/09/19 01:52:19;;;;;;;6.20;2.20;;;;;;;17.56;87.52;99879.42;110956;1206;97613;-68
2023/09/19 01:55:06;;;;;;;9.70;2.90;;;;;;;17.56;87.40;99874.48;110737;1206;138222;-68
2023/09/19 01:58:04;;;;;;;2.50;2.30;;;;;;;17.58;87.45;99874.54;110923;1206;103005;-68
2023/09/19 02:00:33;;;;;;;7.70;2.90;;;;;;;17.61;87.28;99874.99;110957;1206;139194;-68
2023/09/19 02:02:59;;;;;;;3.30;2.50;;;;;;;17.64;87.47;99882.65;111148;1209;99091;-68
2023/09/19 02:05:25;;;;;;;7.40;2.50;;;;;;;17.67;87.70;99884.42;110853;1206;139927;-68
2023/09/19 02:07:52;;;;;;;3.20;2.00;;;;;;;17.69;87.51;99879.91;111039;1209;97602;-68
2023/09/19 02:10:18;;;;;;;3.10;2.00;;;;;;;17.71;87.73;99878.67;110763;1206;97578;-70
2023/09/19 02:12:43;;;;;;;3.60;1.90;;;;;;;17.72;87.72;99875.49;110725;1205;138264;-68
2023/09/19 02:15:09;;;;;;;4.90;2.20;;;;;;;17.73;87.71;99871.84;111072;1209;97716;-68
2023/09/19 02:17:35;;;;;;;6.90;2.50;;;;;;;17.74;87.67;99873.70;110724;1222;139140;-68
2023/09/19 02:20:00;;;;;;;2.80;2.20;;;;;;;17.74;87.73;99875.48;110899;1209;97788;-68
2023/09/19 02:22:26;;;;;;;3.60;2.20;;;;;;;17.76;87.76;99873.58;111192;1211;97655;-68
2023/09/19 02:24:53;;;;;;;4.40;2.40;;;;;;;17.76;87.74;99872.78;110858;1209;138908;-68
2023/09/19 02:27:19;;;;;;;4.60;2.00;;;;;;;17.76;87.77;99872.61;110869;1209;97780;-68
2023/09/19 02:29:44;;;;;;;5.70;2.20;;;;;;;17.75;88.04;99874.11;110900;1206;138692;-68
2023/09/19 02:32:10;;;;;;;3.70;1.90;;;;;;;17.75;88.10;99884.13;110968;1209;97815;-68
2023/09/19 02:34:36;;;;;;;4.40;2.70;;;;;;;17.75;88.00;99886.13;110875;1206;97588;-68
2023/09/19 02:37:04;;;;;;;3.50;2.30;;;;;;;17.73;87.85;99885.37;110847;1210;138304;-70
2023/09/19 02:39:31;;;;;;;6.40;2.60;;;;;;;17.72;87.96;99884.75;111088;1206;99849;-68
2023/09/19 02:41:56;;;;;;;5.80;2.70;;;;;;;17.71;88.17;99889.46;110856;1211;139183;-70
2023/09/19 02:44:22;;;;;;;7.50;3.30;;;;;;;17.69;88.21;99882.79;111042;1209;97600;-68
2023/09/19 02:46:47;;;;;;;4.00;3.20;;;;;;;17.67;88.28;99881.92;110929;1206;97722;-68
2023/09/19 02:49:13;;;;;;;8.40;2.70;;;;;;;17.66;88.24;99885.09;110848;1222;138156;-70
2023/09/19 02:51:38;;;;;;;3.80;2.60;;;;;;;17.63;88.33;99882.71;111062;1209;97675;-68
2023/09/19 02:54:04;;;;;;;6.50;2.90;;;;;;;17.62;88.41;99886.81;110852;1206;138938;-68
2023/09/19 02:56:30;;;;;;;4.40;2.80;;;;;;;17.60;88.38;99891.27;110973;1209;97674;-68
2023/09/19 02:58:56;;;;;;;4.00;2.50;;;;;;;17.59;88.66;99897.42;110853;1212;139327;-69
2023/09/19 03:01:22;;;;;;;4.10;2.60;;;;;;;17.56;88.55;99902.87;110924;1206;97597;-68
2023/09/19 03:03:48;;;;;;;6.30;2.50;;;;;;;17.53;88.64;99903.80;110977;1206;97581;-70
2023/09/19 03:06:14;;;;;;;5.20;3.20;;;;;;;17.50;88.57;99894.35;110822;1209;138225;-71
2023/09/19 03:08:42;;;;;;;6.60;2.80;;;;;;;17.49;88.73;99889.73;110915;1209;97714;-68
2023/09/19 03:11:12;;;;;;;5.10;2.90;;;;;;;17.46;88.70;99889.03;110893;1206;138882;-69
2023/09/19 03:13:38;;;;;;;8.60;2.30;;;;;;;17.43;88.64;99880.80;110945;1209;110724;-68
2023/09/19 03:16:06;;;;;;;5.50;2.80;;;;;;;17.39;88.77;99882.06;110965;1206;98112;-68
2023/09/19 03:18:34;;;;;;;8.50;2.50;;;;;;;17.35;88.93;99889.96;110862;1206;138241;-69
2023/09/19 03:21:00;;;;;;;5.00;2.70;;;;;;;17.32;89.07;99893.52;110961;1209;97709;-68
2023/09/19 03:23:27;;;;;;;4.70;2.60;;;;;;;17.27;88.98;99887.63;110791;1206;138675;-68
2023/09/19 03:25:53;;;;;;;7.20;3.40;;;;;;;17.24;88.96;99884.08;110985;1209;97690;-68
2023/09/19 03:28:20;;;;;;;7.60;2.40;;;;;;;17.19;89.09;99880.83;111043;1206;97603;-68
2023/09/19 03:30:45;;;;;;;4.30;2.30;;;;;;;17.15;89.12;99870.86;110664;1209;138954;-68
2023/09/19 03:33:12;;;;;;;8.30;2.60;;;;;;;17.12;89.28;99870.80;110966;1209;97847;-69
2023/09/19 03:35:38;;;;;;;7.30;2.40;;;;;;;17.08;89.26;99866.80;110951;1210;139106;-70
2023/09/19 03:38:04;;;;;;;6.10;2.30;;;;;;;17.04;89.56;99871.05;111000;1209;108050;-70
2023/09/19 03:40:30;;;;;;;5.90;2.50;;;;;;;17.00;89.54;99869.08;110987;1209;97670;-70
2023/09/19 03:42:55;;;;;;;5.70;2.90;;;;;;;16.98;89.65;99861.16;110812;1212;139627;-70
2023/09/19 03:45:21;;;;;;;6.40;3.10;;;;;;;16.95;89.76;99859.98;110940;1209;100191;-70
2023/09/19 03:47:49;;;;;;;7.00;2.90;;;;;;;16.93;89.92;99856.34;110826;1212;139213;-69
2023/09/19 03:50:17;;;;;;;5.60;2.50;;;;;;;16.91;89.89;99851.81;110885;1206;97699;-70
2023/09/19 03:52:43;;;;;;;5.60;2.60;;;;;;;16.89;89.81;99851.57;110839;1206;96543;-69
2023/09/19 03:55:09;;;;;;;6.90;3.20;;;;;;;16.88;89.96;99854.92;110815;1206;138865;-70
2023/09/19 03:57:35;;;;;;;5.50;3.20;;;;;;;16.85;89.93;99855.83;111011;1209;98071;-70
2023/09/19 04:00:01;;;;;;;4.70;3.00;;;;;;;16.83;89.94;99859.98;110816;1221;138856;-70
2023/09/19 04:02:32;;;;;;;6.60;3.30;;;;;;;16.80;90.00;99862.05;110972;1209;97713;-70
2023/09/19 04:04:58;;;;;;;4.50;3.00;;;;;;;16.77;89.92;99870.07;110760;1209;139941;-69
2023/09/19 04:07:23;;;;;;;7.20;3.40;;;;;;;16.76;90.10;99876.66;110896;1206;97193;-70
2023/09/19 04:09:49;;;;;;;5.20;3.40;;;;;;;16.74;90.31;99872.09;110948;1209;97707;-69
2023/09/19 04:12:16;;;;;;;5.20;3.00;;;;;;;16.74;90.20;99870.14;110909;1206;138930;-70
2023/09/19 04:14:42;;;;;;;6.10;3.30;;;;;;;16.73;90.26;99872.92;110959;1206;97623;-70
2023/09/19 04:17:07;;;;;;;6.00;3.50;;;;;;;16.72;90.28;99878.44;110732;1206;138493;-69
2023/09/19 04:19:33;;;;;;;6.20;3.90;;;;;;;16.71;90.44;99880.11;110896;1206;97578;-70
2023/09/19 04:21:58;;;;;;;5.90;3.50;;;;;;;16.70;90.41;99874.63;110987;1211;97609;-70
2023/09/19 04:24:23;;;;;;;6.40;3.90;;;;;;;16.69;90.51;99864.41;110916;1209;138796;-70
2023/09/19 04:26:48;;;;;;;8.80;4.00;;;;;;;16.68;90.66;99862.87;110891;1209;97565;-70
2023/09/19 04:29:14;;;;;;;5.30;3.80;;;;;;;16.67;90.78;99858.64;110855;1212;138477;-70
2023/09/19 04:31:40;;;;;;;6.00;4.00;;;;;;;16.66;90.76;99864.10;110802;1209;112138;-70
2023/09/19 04:34:05;;;;;;;9.90;4.00;;;;;;;16.66;90.70;99871.92;111040;1206;97658;-70
2023/09/19 04:36:31;;;;;;;6.50;3.80;;;;;;;16.64;90.90;99874.21;110860;1209;138770;-70
2023/09/19 04:38:56;;;;;;;5.40;4.00;;;;;;;16.62;90.94;99878.28;110941;1220;97593;-70
2023/09/19 04:41:22;;;;;;;8.70;4.10;;;;;;;16.62;90.94;99874.16;110889;1206;138923;-70
2023/09/19 04:43:49;;;;;;;6.90;3.50;;;;;;;16.61;91.13;99873.17;111006;1209;97687;-70
2023/09/19 04:46:15;;;;;;;11.50;3.90;;;;;;;16.60;91.23;99877.36;110944;1209;97588;-70
2023/09/19 04:48:41;;;;;;;8.70;4.60;;;;;;;16.61;91.49;99878.41;110829;1206;139285;-70
2023/09/19 04:51:06;;;;;;;5.50;4.00;;;;;;;16.61;91.46;99874.97;110911;1209;97725;-70
2023/09/19 04:53:32;;;;;;;7.70;4.30;;;;;;;16.61;91.76;99878.73;110792;1209;139464;-70
2023/09/19 04:55:58;;;;;;;6.60;4.20;;;;;;;16.62;91.71;99878.83;110942;1206;97597;-70
2023/09/19 04:58:23;;;;;;;5.50;3.80;;;;;;;16.62;91.80;99878.67;111100;1209;97680;-70
2023/09/19 05:00:51;;;;;;;7.40;3.70;;;;;;;16.62;91.85;99880.86;110773;1209;138152;-70
2023/09/19 05:03:17;;;;;;;8.30;4.40;;;;;;;16.62;92.31;99883.91;110964;1206;100488;-70
2023/09/19 05:05:42;;;;;;;10.70;4.30;;;;;;;16.61;92.20;99884.14;110790;1209;138417;-70
2023/09/19 05:08:09;;;;;;;8.10;4.10;;;;;;;16.61;92.18;99890.12;111000;1206;97620;-70
2023/09/19 05:10:37;;;;;;;7.90;4.60;;;;;;;16.61;92.46;99892.27;110709;1206;100098;-70
2023/09/19 05:13:04;;;;;;;11.10;4.70;;;;;;;16.61;93.04;99889.60;110932;1209;139051;-70
2023/09/19 05:15:30;;;;;;;8.60;4.20;;;;;;;16.60;93.17;99888.55;111028;1206;97703;-69
2023/09/19 05:17:56;;;;;;;7.50;3.90;;;;;;;16.62;93.25;99892.58;110736;1218;139222;-70
2023/09/19 05:20:37;;;;;;;10.50;4.00;;;;;;;16.64;93.36;99892.58;110769;1209;97764;-69
2023/09/19 05:23:11;;;;;;;7.70;3.80;;;;;;;16.67;93.42;99894.88;110705;1206;138638;-69
2023/09/19 05:25:37;;;;;;;5.70;3.40;;;;;;;16.69;93.56;99899.02;110889;1206;98577;-69
2023/09/19 05:28:03;;;;;;;7.90;3.10;;;;;;;16.71;93.89;99896.52;110891;1206;97527;-70
2023/09/19 05:30:29;;;;;;;8.60;3.30;;;;;;;16.74;93.95;99898.11;110675;1209;138284;-69
2023/09/19 05:32:55;;;;;;;12.50;4.20;;;;;;;16.76;93.93;99905.20;110999;1206;97591;-69
2023/09/19 05:35:22;;;;;;;6.80;3.30;;;;;;;16.75;94.15;99908.83;110909;1209;138831;-69
2023/09/19 05:37:51;;;;;;;7.20;3.80;;;;;;;16.77;94.33;99908.48;111085;1212;96601;-70
2023/09/19 05:40:17;;;;;;;12.30;3.40;;;;;;;16.80;94.67;99906.85;110918;1206;111641;-69
2023/09/19 05:42:43;;;;;;;6.50;3.20;;;;;;;16.81;95.15;99910.00;111045;1209;139848;-69
2023/09/19 05:45:12;;;;;;;9.40;3.30;;;;;;;16.82;95.22;99912.80;110893;1209;97630;-69
2023/09/19 05:47:44;;;;;;;9.30;3.40;;;;;;;16.84;95.47;99909.55;113102;1209;138982;-70
2023/09/19 05:50:11;;;;;;;8.70;3.20;;;;;;;16.87;95.23;99909.48;113216;1206;95659;-70
2023/09/19 05:52:37;;;;;;;4.40;2.90;;;;;;;16.90;95.48;99910.84;113174;1205;96421;-69
2023/09/19 05:55:06;;;;;;;7.70;3.30;;;;;;;16.94;95.84;99917.10;113121;1206;138654;-71
2023/09/19 05:57:33;;;;;;;8.00;3.60;;;;;;;16.96;95.74;99911.63;112915;1206;99716;-70
2023/09/19 05:59:59;;;;;;;10.50;3.60;;;;;;;17.00;95.82;99913.64;110780;1206;138732;-69
2023/09/19 06:02:28;;;;;;;11.10;3.60;;;;;;;17.03;95.70;99909.44;110947;1206;97700;-69
2023/09/19 06:04:55;;;;;;;9.20;3.60;;;;;;;17.08;95.66;99914.39;110976;1206;138578;-68
2023/09/19 06:07:26;;;;;;;7.10;3.20;;;;;;;17.12;95.71;99917.36;110973;1209;97648;-69
2023/09/19 06:09:53;;;;;;;;;;;;;;;17.14;95.66;99916.83;110643;1209;97678;-70
2023/09/19 06:12:18;;;;;;;7.60;3.20;;;;;;;17.16;95.68;99924.60;110609;1222;124701;-70
2023/09/19 06:14:44;;;;;;;8.20;3.00;;;;;;;17.19;95.59;99926.35;110660;1209;97677;-70
2023/09/19 06:17:10;;;;;;;6.10;3.60;;;;;;;17.21;95.66;99928.33;110688;1206;138679;-69
2023/09/19 06:19:35;;;;;;;6.30;3.10;;;;;;;17.23;95.62;99930.03;110749;1206;97686;-70
2023/09/19 06:22:01;;;;;;;6.60;3.50;;;;;;;17.26;95.55;99926.35;110866;1206;97699;-69
2023/09/19 06:24:26;;;;;;;10.70;3.80;;;;;;;17.27;95.31;99928.42;110943;1208;138327;-69
2023/09/19 06:26:52;;;;;;;6.40;2.90;;;;;;;17.28;95.26;99932.51;111165;1206;97677;-73
2023/09/19 06:29:18;;;;;;;5.20;3.50;;;;;;;17.28;95.31;99938.79;111607;1206;138465;-73
2023/09/19 06:31:44;;;;;;;5.60;3.10;;;;;;;17.29;95.34;99941.30;111555;1206;109136;-73
2023/09/19 06:34:10;;;;;;;7.30;3.30;;;;;;;17.28;95.18;99944.63;111569;1209;97690;-74
2023/09/19 06:36:35;;;;;;;6.30;3.40;;;;;;;17.25;95.41;99951.48;111431;1206;138902;-73
2023/09/19 06:39:01;;;;;;;6.60;3.50;;;;;;;17.25;95.68;99948.44;111624;1206;97665;-73
2023/09/19 06:41:26;;;;;;;8.00;3.50;;;;;;;17.25;95.52;99952.23;111552;1209;139249;-73
2023/09/19 06:43:53;;;;;;;11.70;4.00;;;;;;;17.27;95.27;99956.79;110813;1206;97984;-75
2023/09/19 06:46:19;;;;;;;12.00;3.80;;;;;;;17.28;95.40;99956.31;110468;1206;97664;-73
2023/09/19 06:48:44;;;;;;;8.10;4.00;;;;;;;17.30;95.37;99960.64;111230;1210;139391;-73
2023/09/19 06:51:10;;;;;;;7.40;3.60;;;;;;;17.33;95.31;99966.16;110994;1209;97614;-72
2023/09/19 06:53:35;;;;;;;9.70;3.30;;;;;;;17.39;95.23;99973.81;110541;1211;138533;-74
2023/09/19 06:56:02;;;;;;;12.10;4.30;;;;;;;17.43;95.35;99979.79;110858;1206;97573;-74
2023/09/19 06:58:27;;;;;;;13.90;3.80;;;;;;;17.49;95.26;99979.28;111005;1209;97713;-72
2023/09/19 07:00:53;;;;;;;9.90;3.60;;;;;;;17.58;95.17;99988.55;110822;1205;138544;-72
2023/09/19 07:03:21;;;;;;;22.60;5.30;;;;;;;17.60;95.37;99992.51;110874;1206;97697;-72
2023/09/19 07:05:48;;;;;;;14.10;4.20;;;;;;;17.59;95.10;99986.23;110634;1211;139214;-72
2023/09/19 07:08:13;;;;;;;14.20;4.50;;;;;;;17.63;95.10;99985.98;110949;1206;97211;-71
2023/09/19 07:10:48;;;;;;;17.20;4.00;;;;;;;17.68;95.20;99997.10;110769;1206;97894;-70
2023/09/19 07:13:16;;;;;;;5.00;4.00;;;;;;;17.70;95.12;99989.84;110983;1206;139688;-71
2023/09/19 07:15:46;;;;;;;8.10;3.40;;;;;;;17.75;95.13;99997.59;110811;1211;98027;-71
2023/09/19 07:18:12;;;;;;;16.00;4.10;;;;;;;17.78;95.19;100006.16;110898;1209;139956;-72
2023/09/19 07:20:38;;;;;;;7.90;3.60;;;;;;;17.82;95.18;100005.64;110987;1209;97693;-71
2023/09/19 07:23:03;;;;;;;9.40;3.70;;;;;;;17.91;94.96;100010.94;110812;1218;139286;-71
2023/09/19 07:25:29;;;;;;;10.70;3.10;;;;;;;17.98;94.75;100016.80;110840;1209;97604;-71
2023/09/19 07:27:59;;;;;;;9.00;3.70;;;;;;;18.05;94.93;100019.31;111187;1206;97698;-71
2023/09/19 07:30:26;;;;;;;6.20;3.70;;;;;;;18.11;94.48;100022.39;110773;1209;141425;-70
2023/09/19 07:32:52;;;;;;;10.30;3.10;;;;;;;18.15;94.31;100024.80;111206;1209;97574;-71
2023/09/19 07:35:19;;;;;;;5.40;3.00;;;;;;;18.18;94.12;100028.48;110874;1209;140044;-71
2023/09/19 07:37:49;;;;;;;6.60;3.10;;;;;;;18.25;94.00;100030.05;110917;1206;97634;-70
2023/09/19 07:40:16;;;;;;;8.50;3.60;;;;;;;18.30;93.89;100029.09;111000;1210;98125;-71
2023/09/19 07:42:44;;;;;;;8.40;2.90;;;;;;;18.35;93.74;100022.49;110791;1209;139463;-71
2023/09/19 07:45:14;;;;;;;7.50;3.50;;;;;;;18.43;93.48;100031.41;110984;1206;98932;-71
2023/09/19 07:47:43;;;;;;;4.10;2.50;;;;;;;18.51;93.13;100031.79;110732;1209;139550;-71
2023/09/19 07:50:09;;;;;;;6.90;3.20;;;;;;;18.55;92.64;100035.39;110825;1209;98494;-70
2023/09/19 07:52:35;;;;;;;4.60;2.50;;;;;;;18.63;92.52;100041.64;110845;1206;97590;-70
2023/09/19 07:55:01;;;;;;;5.10;2.50;;;;;;;18.69;92.05;100042.38;110900;1209;139482;-70
2023/09/19 07:57:29;;;;;;;3.20;2.40;;;;;;;18.69;91.49;100036.06;110930;1206;99590;-71
2023/09/19 08:00:11;;;;;;;3.60;2.10;;;;;;;18.70;91.18;100041.92;110874;1206;139163;-71
2023/09/19 08:02:38;;;;;;;3.80;2.10;;;;;;;18.72;90.61;100042.48;110909;1221;97665;-72
2023/09/19 08:05:09;;;;;;;3.60;1.90;;;;;;;18.76;90.15;100042.08;110970;1206;139476;-70
2023/09/19 08:07:39;;;;;;;12.20;2.30;;;;;;;18.81;89.85;100044.20;110932;1206;97834;-71
2023/09/19 08:10:19;;;;;;;10.20;2.20;;;;;;;18.89;89.65;100038.61;110849;1206;100377;-71
2023/09/19 08:12:46;;;;;;;4.50;2.00;;;;;;;18.97;89.16;100045.00;110721;1206;139837;-72
2023/09/19 08:15:20;;;;;;;5.70;2.40;;;;;;;19.05;88.79;100048.64;111001;1206;97588;-71
2023/09/19 08:17:46;;;;;;;3.90;2.30;;;;;;;19.07;88.11;100054.21;110828;1220;138488;-72
2023/09/19 08:20:17;;;;;;;4.50;2.70;;;;;;;19.11;87.94;100059.86;111008;1205;97575;-72
2023/09/19 08:22:52;;;;;;;3.60;2.00;;;;;;;19.16;87.53;100069.73;111025;1206;106443;-73
2023/09/19 08:25:18;;;;;;;10.00;2.00;;;;;;;19.14;86.88;100073.66;110811;1211;99147;-73
2023/09/19 08:27:48;;;;;;;5.20;2.60;;;;;;;19.16;86.69;100072.88;110740;1209;97588;-73
2023/09/19 08:30:18;;;;;;;4.80;1.80;;;;;;;19.22;86.47;100075.05;110812;1206;139097;-73
2023/09/19 08:32:43;;;;;;;7.80;2.50;;;;;;;19.28;85.92;100081.34;110843;1209;97796;-72
2023/09/19 08:35:10;;;;;;;4.50;1.60;;;;;;;19.26;85.27;100076.84;110868;1209;140193;-73
2023/09/19 08:37:36;;;;;;;5.90;2.40;;;;;;;19.28;85.39;100081.57;110861;1213;97665;-74
2023/09/19 08:40:01;;;;;;;6.10;1.90;;;;;;;19.31;84.91;100089.98;111025;1205;97589;-74
2023/09/19 08:42:27;;;;;;;10.00;2.00;;;;;;;19.29;84.27;100096.67;110783;1210;138936;-74
2023/09/19 08:44:54;;;;;;;5.60;2.40;;;;;;;19.27;83.99;100098.10;110880;1206;97636;-74
2023/09/19 08:47:35;;;;;;;8.40;2.30;;;;;;;19.30;83.79;100096.45;110812;1207;138488;-74
2023/09/19 08:50:13;;;;;;;6.10;1.90;;;;;;;19.29;82.81;100090.56;110746;1206;103640;-75
2023/09/19 08:52:43;;;;;;;4.80;2.00;;;;;;;19.29;82.47;100089.30;110871;1206;97712;-75
2023/09/19 08:55:13;;;;;;;5.30;1.90;;;;;;;19.31;82.34;100086.36;110789;1206;138299;-75
2023/09/19 08:57:41;;;;;;;2.50;1.70;;;;;;;19.32;81.89;100092.58;110884;1210;97660;-75
2023/09/19 09:00:14;;;;;;;4.20;2.00;;;;;;;19.33;81.13;100090.14;110832;1209;138678;-72
2023/09/19 09:02:41;;;;;;;4.50;2.00;;;;;;;19.37;81.01;100092.66;110735;1211;102962;-71
2023/09/19 09:05:09;;;;;;;7.50;1.80;;;;;;;19.36;79.72;100096.02;110796;1206;139349;-71
2023/09/19 09:07:36;;;;;;;5.50;1.90;;;;;;;19.29;79.44;100093.16;110897;1211;97600;-73
2023/09/19 09:10:05;;;;;;;7.00;2.10;;;;;;;19.30;79.23;100092.77;110982;1206;97583;-72
2023/09/19 09:12:31;;;;;;;3.30;1.90;;;;;;;19.31;79.20;100089.23;110820;1210;139785;-73
2023/09/19 09:14:57;;;;;;;3.70;1.80;;;;;;;19.33;78.83;100087.80;110889;1221;97699;-72
2023/09/19 09:17:26;;;;;;;3.10;1.50;;;;;;;19.35;78.10;100091.59;111296;1206;139265;-72
2023/09/19 09:19:54;;;;;;;5.50;1.80;;;;;;;19.29;77.29;100100.29;110961;1206;97597;-73
2023/09/19 09:22:23;;;;;;;6.70;2.30;;;;;;;19.25;76.82;100103.02;110871;1206;97559;-74
2023/09/19 09:24:58;;;;;;;6.10;2.00;;;;;;;19.22;76.52;100108.71;110972;1209;138428;-75
2023/09/19 09:27:24;;;;;;;8.40;2.50;;;;;;;19.17;75.52;100119.44;110947;1209;98866;-74
2023/09/19 09:29:50;;;;;;;9.70;2.20;;;;;;;19.13;73.95;100126.09;110665;1208;138917;-74
2023/09/19 09:32:19;;;;;;;9.50;1.90;;;;;;;19.10;73.26;100127.44;110713;1206;98118;-74
2023/09/19 09:34:47;;;;;;;5.40;1.90;;;;;;;19.13;72.91;100127.08;111209;1208;97703;-74
2023/09/19 09:37:15;;;;;;;11.60;2.40;;;;;;;19.17;72.53;100124.76;110844;1206;138740;-71
2023/09/19 09:39:51;;;;;;;8.00;2.40;;;;;;;19.12;72.20;100126.21;110955;1209;97580;-74
2023/09/19 09:42:38;;;;;;;9.60;2.00;;;;;;;19.13;72.19;100133.52;110847;1206;138880;-74
2023/09/19 09:48:14;;;;;;;4.40;2.10;;;;;;;19.17;71.36;100140.54;111174;1206;138825;-74
2023/09/19 09:50:55;;;;;;;;;;;;;;;19.21;71.08;100151.52;110851;1206;103031;-75
2023/09/19 09:53:36;;;;;;;4.60;2.00;;;;;;;19.18;70.33;100154.55;110804;1206;126936;-73
2023/09/19 09:56:08;;;;;;;3.50;2.00;;;;;;;19.21;69.70;100162.95;110946;1206;98567;-75
2023/09/19 09:58:55;;;;;;;12.60;2.10;;;;;;;19.25;68.99;100164.23;110726;1215;97907;-74
2023/09/19 10:01:26;;;;;;;9.30;1.90;;;;;;;19.31;68.59;100161.55;110953;1208;97715;-74
2023/09/19 10:03:57;;;;;;;6.60;2.00;;;;;;;19.40;68.36;100158.19;110930;1206;102833;-74
2023/09/19 10:06:25;;;;;;;6.30;2.20;;;;;;;19.50;68.69;100159.52;111053;1206;138461;-74
2023/09/19 10:09:20;;;;;;;16.20;2.70;;;;;;;19.63;67.91;100159.99;111025;1209;99404;-74
2023/09/19 10:12:05;;;;;;;4.40;1.20;;;;;;;19.67;66.55;100174.45;110530;1211;140359;-73
2023/09/19 10:14:35;;;;;;;6.30;1.90;;;;;;;19.68;66.60;100167.38;110935;1206;97664;-73
2023/09/19 10:17:04;;;;;;;6.40;1.50;;;;;;;19.76;66.36;100170.08;110692;1209;140503;-72
2023/09/19 10:19:36;;;;;;;5.40;1.60;;;;;;;19.81;65.64;100166.23;110926;1206;97600;-73
2023/09/19 10:22:04;;;;;;;5.90;1.80;;;;;;;19.88;65.35;100161.24;110914;1209;98519;-72
2023/09/19 10:24:31;;;;;;;7.40;2.30;;;;;;;19.94;64.66;100157.92;110891;1211;138158;-73
2023/09/19 10:26:57;;;;;;;4.50;1.80;;;;;;;20.06;65.29;100147.05;111059;1208;97625;-73
2023/09/19 10:29:26;;;;;;;5.60;1.90;;;;;;;20.27;65.36;100153.66;111160;1209;138072;-72
2023/09/19 10:31:53;;;;;;;5.60;1.50;;;;;;;20.40;64.68;100153.04;111199;1208;97808;-73
2023/09/19 10:34:20;;;;;;;5.10;1.90;;;;;;;20.46;64.35;100145.73;111079;1206;96848;-74
2023/09/19 10:36:46;;;;;;;5.40;1.70;;;;;;;20.51;63.34;100151.34;110879;1210;137947;-74
2023/09/19 10:39:19;;;;;;;8.60;2.20;;;;;;;20.50;63.26;100146.81;111083;1206;97639;-74
2023/09/19 10:41:53;;;;;;;10.10;2.10;;;;;;;20.61;63.30;100144.76;111023;1209;137972;-74
2023/09/19 10:44:25;;;;;;;7.40;2.20;;;;;;;20.71;63.00;100150.15;111144;1209;97651;-73
2023/09/19 10:46:52;;;;;;;3.60;1.80;;;;;;;20.80;62.75;100152.14;111009;1206;99343;-72
2023/09/19 10:49:18;;;;;;;5.00;1.90;;;;;;;20.82;62.05;100159.44;110891;1209;137507;-73
2023/09/19 10:51:47;;;;;;;3.10;1.50;;;;;;;20.78;61.33;100153.84;110894;1206;96501;-73
2023/09/19 10:54:15;;;;;;;3.70;2.00;;;;;;;20.78;61.28;100162.52;111024;1211;138821;-74
2023/09/19 10:56:51;;;;;;;7.80;2.00;;;;;;;20.90;61.19;100164.70;110970;1209;97769;-74
2023/09/19 10:59:21;;;;;;;4.40;1.50;;;;;;;20.91;59.71;100172.91;111251;1208;138255;-72
2023/09/19 11:01:51;;;;;;;6.40;1.70;;;;;;;20.91;59.55;100171.84;111031;1206;97572;-73
2023/09/19 11:04:24;;;;;;;3.80;1.30;;;;;;;20.96;59.06;100174.77;111142;1208;97577;-74
2023/09/19 11:07:16;;;;;;;4.30;1.40;;;;;;;20.91;58.15;100183.23;110945;1208;138566;-73
2023/09/19 11:09:53;;;;;;;2.50;1.50;;;;;;;20.78;56.88;100188.34;110773;1209;97625;-73
2023/09/19 11:12:36;;;;;;;6.00;2.00;;;;;;;20.68;56.49;100186.16;110924;1211;138174;-73
2023/09/19 11:15:20;;;;;;;;;;;;;;;;;;;;;
2023/09/19 11:17:46;;;;;;;9.50;2.00;;;;;;;20.67;55.30;100187.93;110790;1211;137576;-71
2023/09/19 11:22:49;;;;;;;5.60;2.00;;;;;;;20.70;55.06;100205.39;110925;1206;96966;-72
2023/09/19 11:25:30;;;;;;;6.10;2.10;;;;;;;20.72;55.21;100195.23;110989;1221;137587;-72
2023/09/19 11:30:38;;;;;;;2.30;1.80;;;;;;;20.81;53.98;100201.08;110802;1206;138304;-72
2023/09/19 11:33:46;;;;;;;5.50;1.90;;;;;;;20.71;53.98;100199.00;110796;1210;97690;-73
2023/09/19 11:36:16;;;;;;;9.00;2.50;;;;;;;20.63;54.17;100199.91;110771;1221;138339;-72